Terminal Aerodrome Forecast
Issued by NWS Charleston, WV

Current Version | Previous Version | Text Only | Print | Product List | Glossary Off
Versions: 1 2 3 4 5 6 7 8 9 10 11 12 13 14 15 16 17 18 19 20

000
FTUS41 KRLX 211700
TAFBKW
TAF
KBKW 211735Z 2118/2218 13005KT P6SM SCT045
     FM211900 13005KT P6SM VCTS SCT045CB
     FM220100 VRB03KT P6SM SCT045
     FM220700 VRB03KT P6SM BKN250
     FM221200 13004KT P6SM SCT035
     FM221400 17004KT P6SM BKN035=

USA.gov is the U.S. government's official web portal to all federal, state and local government web resources and services.